»·PEaware :: N149CD KLGB-KCRQ

N149CD :: KLGB-KCRQ

FLIGHT INFORMATION

Flight Status: Arrived
Operator: Privately registered:
United States
More flights under this callsign
Pilot: Nathan E. (30132)
Aircraft: CIRRUS SR-22
(SR22)
More flights by this aircraft type
Origin: KLGB Long Beach
United States
Destination: KCRQ McClellan-Palomar
United States
More flights between these airports :: More routes between these airports
Route: V23 OCN
File this flight plan on PilotEdge
Remarks: TEC route CSTP34
Altitude:
(Current/Filed)
5,000ft
Speed:
(Current/Filed)
170kts
Departed: 20-Jan-21 11:46 AM
Arrived: 20-Jan-21 12:20 PM
Distance/Time
Traveled:
60nm/0:34
Distance/Time
To Go:
Arrived

Flight Plot

Page will automatically refresh every two minutes.

Flight plan parsing failed; only flown route is shown


Map Options




Map Legend


Flown Route
Filed Route
Departure Airport
Arrival Airport
Navaid (VOR, NDB)
Fix

Horizontal Profiles

Position Reports

Time Latitude Longitude Heading Altitude Ground
Speed
20-Jan-21 11:15 33.812682 -118.154101 89 42ft 0kts
20-Jan-21 11:16 33.812682 -118.154101 89 42ft 0kts
20-Jan-21 11:16 33.812682 -118.154101 89 42ft 0kts
20-Jan-21 11:17 33.812682 -118.154101 89 42ft 0kts
20-Jan-21 11:18 33.812682 -118.154101 89 42ft 0kts
20-Jan-21 11:19 33.812682 -118.154101 90 42ft 0kts
20-Jan-21 11:20 33.812682 -118.154101 89 42ft 0kts
20-Jan-21 11:21 33.812682 -118.154101 89 42ft 0kts
20-Jan-21 11:22 33.812682 -118.154101 89 42ft 0kts
20-Jan-21 11:23 33.812682 -118.154101 90 42ft 0kts
20-Jan-21 11:24 33.812682 -118.154101 89 42ft 0kts
20-Jan-21 11:25 33.812682 -118.154101 89 42ft 0kts
20-Jan-21 11:26 33.812682 -118.154101 89 42ft 0kts
20-Jan-21 11:27 33.812682 -118.154101 89 42ft 0kts
20-Jan-21 11:28 33.812682 -118.154101 90 42ft 0kts
20-Jan-21 11:29 33.812682 -118.154101 89 42ft 0kts
20-Jan-21 11:30 33.812682 -118.154101 89 42ft 0kts
20-Jan-21 11:31 33.812682 -118.154101 89 42ft 0kts
20-Jan-21 11:32 33.812682 -118.154101 89 42ft 0kts
20-Jan-21 11:33 33.812682 -118.154101 89 42ft 0kts
20-Jan-21 11:34 33.812682 -118.154101 89 42ft 0kts
20-Jan-21 11:35 33.812682 -118.154101 89 42ft 0kts
20-Jan-21 11:36 33.812682 -118.154101 90 42ft 0kts
20-Jan-21 11:37 33.812682 -118.154101 89 42ft 0kts
20-Jan-21 11:38 33.813116 -118.154842 269 42ft 6kts
20-Jan-21 11:39 33.813115 -118.158746 268 49ft 13kts
20-Jan-21 11:40 33.813094 -118.161471 57 51ft 0kts
20-Jan-21 11:41 33.813094 -118.161471 57 51ft 0kts
20-Jan-21 11:42 33.813094 -118.161471 57 51ft 0kts
20-Jan-21 11:43 33.813094 -118.161471 57 51ft 0kts
20-Jan-21 11:44 33.813608 -118.161259 355 51ft 9kts
20-Jan-21 11:45 33.814074 -118.138242 92 452ft 127kts
20-Jan-21 11:46 33.814842 -118.095557 82 1936ft 129kts
20-Jan-21 11:47 33.815242 -118.077803 84 2515ft 127kts
20-Jan-21 11:48 33.814788 -118.048840 112 3350ft 126kts
20-Jan-21 11:49 33.787603 -118.020697 138 4438ft 127kts
20-Jan-21 11:50 33.758249 -117.990346 137 5018ft 151kts
20-Jan-21 11:51 33.724120 -117.954441 137 4999ft 158kts
20-Jan-21 11:52 33.690009 -117.918418 137 5000ft 159kts
20-Jan-21 11:53 33.655973 -117.882485 137 5000ft 160kts
20-Jan-21 11:54 33.622127 -117.846789 137 4999ft 160kts
20-Jan-21 11:55 33.588212 -117.811058 137 4999ft 160kts
20-Jan-21 11:56 33.554002 -117.775056 137 4999ft 160kts
20-Jan-21 11:57 33.520225 -117.739548 137 4999ft 160kts
20-Jan-21 11:58 33.486568 -117.704204 137 4999ft 160kts
20-Jan-21 11:59 33.454073 -117.666810 134 4999ft 160kts
20-Jan-21 12:00 33.422000 -117.629273 134 4999ft 160kts
20-Jan-21 12:01 33.389908 -117.591749 134 4999ft 160kts
20-Jan-21 12:02 33.357904 -117.554370 134 4999ft 160kts
20-Jan-21 12:03 33.325806 -117.516921 134 4999ft 160kts
20-Jan-21 12:04 33.293765 -117.479568 134 4999ft 160kts
20-Jan-21 12:05 33.260650 -117.441001 134 5003ft 169kts
20-Jan-21 12:06 33.238971 -117.392917 94 4999ft 165kts
20-Jan-21 12:07 33.235881 -117.348104 93 4986ft 117kts
20-Jan-21 12:08 33.233074 -117.306865 93 4996ft 123kts
20-Jan-21 12:09 33.230609 -117.267087 88 5000ft 116kts
20-Jan-21 12:10 33.231009 -117.227873 88 4852ft 117kts
20-Jan-21 12:11 33.231453 -117.189442 88 4367ft 120kts
20-Jan-21 12:12 33.227800 -117.149232 113 3995ft 121kts
20-Jan-21 12:13 33.204255 -117.122536 158 3527ft 116kts
20-Jan-21 12:14 33.172389 -117.123470 203 3137ft 118kts
20-Jan-21 12:15 33.150018 -117.151696 248 2530ft 115kts
20-Jan-21 12:16 33.142951 -117.188863 258 1864ft 111kts
20-Jan-21 12:17 33.137204 -117.224610 258 1287ft 98kts
20-Jan-21 12:18 33.131957 -117.256670 257 661ft 89kts
20-Jan-21 12:19 33.128196 -117.279273 198 308ft 9kts
20-Jan-21 12:20 33.127105 -117.280374 259 309ft 7kts

Navigation Log

Ident Type
Flight plan parsing failed, navigation log unavailable